createdAt,value
2018-08-22T00:00:39.572Z,6.00
2018-08-22T00:03:10.730Z,6.33
2018-08-22T00:05:46.830Z,6.60
2018-08-22T00:08:38.023Z,5.63
2018-08-22T00:11:09.156Z,6.10
2018-08-22T00:13:38.105Z,5.83
2018-08-22T00:16:07.047Z,6.83
2018-08-22T00:18:36.050Z,6.40
2018-08-22T00:21:05.068Z,6.93
2018-08-22T00:23:36.366Z,6.70
2018-08-22T00:26:08.235Z,6.77
2018-08-22T00:28:37.084Z,6.07
2018-08-22T00:31:06.125Z,6.20
2018-08-22T00:33:35.198Z,5.63
2018-08-22T00:36:06.737Z,5.60
2018-08-22T00:38:35.778Z,6.07
2018-08-22T00:41:04.675Z,6.37
2018-08-22T00:43:35.783Z,6.30
2018-08-22T00:46:02.563Z,5.40
2018-08-22T00:48:33.561Z,5.37
2018-08-22T00:51:05.073Z,5.47
2018-08-22T00:53:36.219Z,5.60
2018-08-22T00:56:05.151Z,5.90
2018-08-22T00:58:34.045Z,6.70
2018-08-22T01:01:02.977Z,6.30
2018-08-22T01:03:33.803Z,5.97
2018-08-22T01:06:02.671Z,6.23
2018-08-22T01:08:33.751Z,5.80
2018-08-22T01:11:04.415Z,6.43
2018-08-22T01:13:35.600Z,6.62
2018-08-22T01:16:04.557Z,6.00
2018-08-22T01:18:33.561Z,6.23
2018-08-22T01:21:02.405Z,6.00
2018-08-22T01:23:32.989Z,5.90
2018-08-22T01:26:01.895Z,5.63
2018-08-22T01:28:33.201Z,5.40
2018-08-22T01:31:02.148Z,5.57
2018-08-22T01:33:33.706Z,5.30
2018-08-22T01:36:02.586Z,5.63
2018-08-22T01:38:31.506Z,6.33
2018-08-22T01:41:00.559Z,6.40
2018-08-22T01:43:29.464Z,6.80
2018-08-22T01:45:58.338Z,6.97
2018-08-22T01:48:27.345Z,6.30
2018-08-22T01:50:56.383Z,6.67
2018-08-22T01:53:25.273Z,7.10
2018-08-22T01:55:54.193Z,6.70
2018-08-22T01:58:23.065Z,6.73
2018-08-22T02:00:51.974Z,6.73
2018-08-22T02:03:20.910Z,7.20
2018-08-22T02:05:52.310Z,8.37
2018-08-22T02:08:21.213Z,7.20
2018-08-22T02:10:50.113Z,6.80
2018-08-22T02:13:18.986Z,7.50
2018-08-22T02:15:48.035Z,7.60
2018-08-22T02:18:16.919Z,6.30
2018-08-22T02:20:47.553Z,8.03
2018-08-22T02:23:14.873Z,7.20
2018-08-22T02:25:43.708Z,6.87
2018-08-22T02:28:12.673Z,7.13
2018-08-22T02:30:41.523Z,6.90
2018-08-22T02:33:10.467Z,6.63
2018-08-22T02:35:39.403Z,7.10
2018-08-22T02:38:08.317Z,8.07
2018-08-22T02:40:37.215Z,7.27
2018-08-22T02:43:06.123Z,6.40
2018-08-22T02:45:35.067Z,6.97
2018-08-22T02:48:03.991Z,6.40
2018-08-22T02:50:32.904Z,6.57
2018-08-22T02:53:01.768Z,6.47
2018-08-22T02:55:30.710Z,6.87
2018-08-22T02:57:59.702Z,5.80
2018-08-22T03:00:28.530Z,7.37
2018-08-22T03:02:57.415Z,6.95
2018-08-22T03:05:26.294Z,7.07
2018-08-22T03:07:57.740Z,7.00
2018-08-22T03:10:26.821Z,6.23
2018-08-22T03:12:55.782Z,6.63
2018-08-22T03:15:24.619Z,6.47
2018-08-22T03:17:53.479Z,7.57
2018-08-22T03:20:22.417Z,7.03
2018-08-22T03:22:51.282Z,9.23
2018-08-22T03:25:20.256Z,8.47
2018-08-22T03:27:49.222Z,7.93
2018-08-22T03:30:18.066Z,8.10
2018-08-22T03:32:46.943Z,9.10
2018-08-22T03:35:15.915Z,8.60
2018-08-22T03:37:44.735Z,8.03
2018-08-22T03:40:13.649Z,7.63
2018-08-22T03:42:44.639Z,7.97
2018-08-22T03:45:11.443Z,8.00
2018-08-22T03:47:40.392Z,8.83
2018-08-22T03:50:09.391Z,10.27
2018-08-22T03:52:38.605Z,8.90
2018-08-22T03:55:07.497Z,11.10
2018-08-22T03:57:36.468Z,12.87
2018-08-22T04:00:07.261Z,12.07
2018-08-22T04:02:34.624Z,10.57
2018-08-22T04:05:05.917Z,10.60
2018-08-22T04:07:34.929Z,9.90
2018-08-22T04:10:03.798Z,9.70
2018-08-22T04:12:35.457Z,9.03
2018-08-22T04:15:04.398Z,9.37
2018-08-22T04:17:42.203Z,9.10
2018-08-22T04:20:11.078Z,8.90
2018-08-22T04:22:40.800Z,9.30
2018-08-22T04:25:10.034Z,9.43
2018-08-22T04:27:39.058Z,10.20
2018-08-22T04:30:10.494Z,10.67
2018-08-22T04:32:41.099Z,9.50
2018-08-22T04:35:09.918Z,9.03
2018-08-22T04:37:41.478Z,8.33
2018-08-22T04:40:19.371Z,10.23
2018-08-22T04:42:51.286Z,9.63
2018-08-22T04:45:24.994Z,8.90
2018-08-22T04:47:51.975Z,9.07
2018-08-22T04:50:20.954Z,9.17
2018-08-22T04:52:51.705Z,9.53
2018-08-22T04:55:22.980Z,9.30
2018-08-22T04:57:54.699Z,11.37
2018-08-22T05:00:23.642Z,11.10
2018-08-22T05:02:54.229Z,10.93
2018-08-22T05:05:23.243Z,11.40
2018-08-22T05:07:52.186Z,10.53
2018-08-22T05:10:21.154Z,9.83
2018-08-22T05:12:55.845Z,10.90
2018-08-22T05:15:24.796Z,9.57
2018-08-22T05:17:53.711Z,10.40
2018-08-22T05:20:22.620Z,11.70
2018-08-22T05:22:54.662Z,13.50
2018-08-22T05:25:23.656Z,12.13
2018-08-22T05:27:55.082Z,13.68
2018-08-22T05:30:25.818Z,12.00
2018-08-22T05:32:54.788Z,12.90
2018-08-22T05:35:29.333Z,12.80
2018-08-22T05:37:58.260Z,12.13
2018-08-22T05:40:27.160Z,12.97
2018-08-22T05:42:56.117Z,10.97
2018-08-22T05:45:25.024Z,11.30
2018-08-22T05:47:53.903Z,10.57
2018-08-22T05:50:22.828Z,10.77
2018-08-22T05:52:51.715Z,13.32
2018-08-22T05:55:20.686Z,11.57
2018-08-22T05:57:49.622Z,11.67
2018-08-22T06:00:18.522Z,12.03
2018-08-22T06:02:47.457Z,11.80
2018-08-22T06:05:16.480Z,12.20
2018-08-22T06:07:48.379Z,12.60
2018-08-22T06:10:14.382Z,12.10
2018-08-22T06:12:43.302Z,11.57
2018-08-22T06:15:14.571Z,11.87
2018-08-22T06:17:43.505Z,12.57
2018-08-22T06:20:12.453Z,12.53
2018-08-22T06:22:41.409Z,12.27
2018-08-22T06:25:12.941Z,11.50
2018-08-22T06:27:41.746Z,11.20
2018-08-22T06:30:11.502Z,9.93
2018-08-22T06:32:40.445Z,9.47
2018-08-22T06:35:11.283Z,10.32
2018-08-22T06:37:40.231Z,10.00
2018-08-22T06:40:09.165Z,9.83
2018-08-22T06:42:38.073Z,10.00
2018-08-22T06:45:09.457Z,9.07
2018-08-22T06:47:36.610Z,9.57
2018-08-22T06:50:05.687Z,10.53
2018-08-22T06:52:34.570Z,10.30
2018-08-22T06:55:03.447Z,9.87
2018-08-22T06:57:32.405Z,12.40
2018-08-22T07:00:01.293Z,13.65
2018-08-22T07:02:30.218Z,16.23
2018-08-22T07:04:59.236Z,16.82
2018-08-22T07:07:28.146Z,18.27
2018-08-22T07:09:57.000Z,21.75
2018-08-22T07:12:25.864Z,24.02
2018-08-22T07:14:54.737Z,22.45
2018-08-22T07:17:23.684Z,23.85
2018-08-22T07:19:52.484Z,24.23
2018-08-22T07:22:21.385Z,22.50
2018-08-22T07:24:50.297Z,23.50
2018-08-22T07:27:19.085Z,21.65
2018-08-22T07:29:47.992Z,20.08
2018-08-22T07:32:16.876Z,20.65
2018-08-22T07:34:45.846Z,20.27
2018-08-22T07:37:15.012Z,21.80
2018-08-22T07:39:51.057Z,21.95
2018-08-22T07:42:20.012Z,23.95
2018-08-22T07:44:50.541Z,22.80
2018-08-22T07:47:19.398Z,24.75
2018-08-22T07:49:49.609Z,23.67
2018-08-22T07:52:21.331Z,27.40
2018-08-22T07:54:50.294Z,22.48
2018-08-22T07:57:23.356Z,21.85
2018-08-22T07:59:55.253Z,25.43
2018-08-22T08:02:24.239Z,24.70
2018-08-22T08:04:53.177Z,21.57
2018-08-22T08:07:22.021Z,23.57
2018-08-22T08:09:50.947Z,22.65
2018-08-22T08:12:23.671Z,21.85
2018-08-22T08:15:05.026Z,20.32
2018-08-22T08:17:33.977Z,25.95
2018-08-22T08:20:03.758Z,27.02
2018-08-22T08:22:32.693Z,26.05
2018-08-22T08:25:01.603Z,24.60
2018-08-22T08:27:30.488Z,25.92
2018-08-22T08:29:59.422Z,24.82
2018-08-22T08:32:28.369Z,27.27
2018-08-22T08:34:57.372Z,25.30
2018-08-22T08:37:26.267Z,25.25
2018-08-22T08:39:58.092Z,24.87
2018-08-22T08:42:26.969Z,22.32
2018-08-22T08:44:55.901Z,21.20
2018-08-22T08:47:27.709Z,23.57
2018-08-22T08:49:53.988Z,21.45
2018-08-22T08:52:22.925Z,22.87
2018-08-22T08:54:53.022Z,22.20
2018-08-22T08:57:21.980Z,22.67
2018-08-22T08:59:50.857Z,22.52
2018-08-22T09:02:19.785Z,22.42
2018-08-22T09:04:48.686Z,20.48
2018-08-22T09:07:17.700Z,19.32
2018-08-22T09:09:46.621Z,19.77
2018-08-22T09:12:15.541Z,17.82
2018-08-22T09:14:44.529Z,17.17
2018-08-22T09:17:14.468Z,18.92
2018-08-22T09:19:43.707Z,17.95
2018-08-22T09:22:13.769Z,19.23
2018-08-22T09:24:45.373Z,17.52
2018-08-22T09:27:14.232Z,20.35
2018-08-22T09:29:48.053Z,18.30
2018-08-22T09:32:12.001Z,19.75
2018-08-22T09:34:40.909Z,18.98
2018-08-22T09:37:09.834Z,20.10
2018-08-22T09:39:38.802Z,19.40
2018-08-22T09:42:07.653Z,20.55
2018-08-22T09:44:36.616Z,20.77
2018-08-22T09:47:12.173Z,18.98
2018-08-22T09:49:41.836Z,19.65
2018-08-22T09:52:11.137Z,18.32
2018-08-22T09:55:03.515Z,21.40
2018-08-22T09:57:32.538Z,20.40
2018-08-22T10:00:01.461Z,19.92
2018-08-22T10:02:30.313Z,18.32
2018-08-22T10:04:59.597Z,18.05
2018-08-22T10:07:28.574Z,19.75
2018-08-22T10:09:57.488Z,15.90
2018-08-22T10:12:26.385Z,19.02
2018-08-22T10:14:55.369Z,18.67
2018-08-22T10:17:24.373Z,19.45
2018-08-22T10:19:53.070Z,21.23
2018-08-22T10:22:21.984Z,20.82
2018-08-22T10:24:50.918Z,26.97
2018-08-22T10:27:19.745Z,24.85
2018-08-22T10:29:48.766Z,20.27
2018-08-22T10:32:17.648Z,19.15
2018-08-22T10:34:46.557Z,20.75
2018-08-22T10:37:15.799Z,18.42
2018-08-22T10:39:44.771Z,22.50
2018-08-22T10:42:13.536Z,22.58
2018-08-22T10:44:45.544Z,28.07
2018-08-22T10:47:14.448Z,22.45
2018-08-22T10:49:43.394Z,19.17
2018-08-22T10:52:12.408Z,22.22
2018-08-22T10:54:41.254Z,18.27
2018-08-22T10:57:10.138Z,19.00
2018-08-22T10:59:39.035Z,18.75
2018-08-22T11:02:07.902Z,18.23
2018-08-22T11:04:36.796Z,19.35
2018-08-22T11:07:05.757Z,18.70
2018-08-22T11:09:34.670Z,18.98
2018-08-22T11:12:03.638Z,16.30
2018-08-22T11:14:32.498Z,21.42
2018-08-22T11:17:01.417Z,16.12
2018-08-22T11:19:30.294Z,14.65
2018-08-22T11:22:35.713Z,14.33
2018-08-22T11:25:40.963Z,14.93
2018-08-22T11:28:46.635Z,16.17
2018-08-22T11:31:52.339Z,19.17
2018-08-22T11:34:46.409Z,18.57
2018-08-22T11:37:16.263Z,16.67
2018-08-22T11:39:46.417Z,18.52
2018-08-22T11:42:15.413Z,17.30
2018-08-22T11:44:44.364Z,19.20
2018-08-22T11:47:13.243Z,20.40
2018-08-22T11:49:42.209Z,16.62
2018-08-22T11:52:10.990Z,21.40
2018-08-22T11:54:39.951Z,21.12
2018-08-22T11:57:08.867Z,18.52
2018-08-22T11:59:37.707Z,17.52
2018-08-22T12:02:06.585Z,17.23
2018-08-22T12:04:35.524Z,16.17
2018-08-22T12:07:04.325Z,13.65
2018-08-22T12:09:33.184Z,19.05
2018-08-22T12:12:02.077Z,19.25
2018-08-22T12:14:33.417Z,20.05
2018-08-22T12:17:02.358Z,17.90
2018-08-22T12:19:31.242Z,19.37
2018-08-22T12:22:00.126Z,19.98
2018-08-22T12:24:29.038Z,20.48
2018-08-22T12:26:57.981Z,20.12
2018-08-22T12:29:26.876Z,19.57
2018-08-22T12:31:55.918Z,17.90
2018-08-22T12:34:24.646Z,17.80
2018-08-22T12:36:53.526Z,13.88
2018-08-22T12:39:22.395Z,12.80
2018-08-22T12:41:51.322Z,15.80
2018-08-22T12:44:20.268Z,16.30
2018-08-22T12:46:49.084Z,16.05
2018-08-22T12:49:18.004Z,16.73
2018-08-22T12:51:48.314Z,14.40
2018-08-22T12:54:15.770Z,13.45
2018-08-22T12:56:44.726Z,14.20
2018-08-22T12:59:13.662Z,13.48
2018-08-22T13:01:42.545Z,12.98
2018-08-22T13:04:13.671Z,12.93
2018-08-22T13:06:42.627Z,11.08
2018-08-22T13:09:11.992Z,13.00
2018-08-22T13:11:41.213Z,10.78
2018-08-22T13:14:10.173Z,13.98
2018-08-22T13:16:39.054Z,11.80
2018-08-22T13:19:07.983Z,13.80
2018-08-22T13:21:36.880Z,13.55
2018-08-22T13:24:05.769Z,14.70
2018-08-22T13:26:34.724Z,15.88
2018-08-22T13:29:05.152Z,14.68
2018-08-22T13:31:32.632Z,16.20
2018-08-22T13:34:01.611Z,16.40
2018-08-22T13:36:30.494Z,12.75
2018-08-22T13:38:59.481Z,12.90
2018-08-22T13:41:28.263Z,13.93
2018-08-22T13:43:57.161Z,15.40
2018-08-22T13:46:26.046Z,13.80
2018-08-22T13:48:55.027Z,12.95
2018-08-22T13:51:23.940Z,14.47
2018-08-22T13:53:52.820Z,14.73
2018-08-22T13:56:21.863Z,15.45
2018-08-22T13:58:50.972Z,14.10
2018-08-22T14:01:19.862Z,13.65
2018-08-22T14:03:48.806Z,11.93
2018-08-22T14:06:17.662Z,14.15
2018-08-22T14:08:46.609Z,15.08
2018-08-22T14:11:15.503Z,13.93
2018-08-22T14:13:44.340Z,11.60
2018-08-22T14:16:13.317Z,14.00
2018-08-22T14:18:45.249Z,15.58
2018-08-22T14:21:11.229Z,12.88
2018-08-22T14:23:40.128Z,11.78
2018-08-22T14:26:09.059Z,15.20
2018-08-22T14:28:37.918Z,13.03
2018-08-22T14:31:06.840Z,11.20
2018-08-22T14:33:35.757Z,11.97
2018-08-22T14:36:04.667Z,15.13
2018-08-22T14:38:33.571Z,13.20
2018-08-22T14:41:02.499Z,15.03
2018-08-22T14:43:31.451Z,14.87
2018-08-22T14:46:00.349Z,14.73
2018-08-22T14:48:29.274Z,12.23
2018-08-22T14:50:58.176Z,12.20
2018-08-22T14:53:27.212Z,12.30
2018-08-22T14:55:56.046Z,12.98
2018-08-22T14:58:24.926Z,13.88
2018-08-22T15:00:53.880Z,13.28
2018-08-22T15:03:23.173Z,14.50
2018-08-22T15:05:51.774Z,14.73
2018-08-22T15:08:20.658Z,13.40
2018-08-22T15:10:49.664Z,12.75
2018-08-22T15:13:18.531Z,12.82
2018-08-22T15:15:47.464Z,13.50
2018-08-22T15:18:16.450Z,13.70
2018-08-22T15:20:46.974Z,13.55
2018-08-22T15:23:14.194Z,14.68
2018-08-22T15:25:43.100Z,12.18
2018-08-22T15:28:12.003Z,11.60
2018-08-22T15:30:40.896Z,11.08
2018-08-22T15:33:09.781Z,14.15
2018-08-22T15:35:38.714Z,12.00
2018-08-22T15:38:07.593Z,10.80
2018-08-22T15:40:36.515Z,12.20
2018-08-22T15:43:05.529Z,11.63
2018-08-22T15:45:34.408Z,10.98
2018-08-22T15:48:03.320Z,10.58
2018-08-22T15:50:32.224Z,10.65
2018-08-22T15:53:01.200Z,11.93
2018-08-22T15:55:30.215Z,11.53
2018-08-22T15:58:06.675Z,11.38
2018-08-22T16:00:51.767Z,11.35
2018-08-22T16:03:21.096Z,11.53
2018-08-22T16:05:50.703Z,12.28
2018-08-22T16:08:21.293Z,11.60
2018-08-22T16:10:50.239Z,11.20
2018-08-22T16:13:28.432Z,11.38
2018-08-22T16:16:00.246Z,10.30
2018-08-22T16:18:29.139Z,11.45
2018-08-22T16:20:59.219Z,13.03
2018-08-22T16:23:29.655Z,13.10
2018-08-22T16:25:59.653Z,12.75
2018-08-22T16:28:49.747Z,11.22
2018-08-22T16:31:18.812Z,15.05
2018-08-22T16:33:47.560Z,15.03
2018-08-22T16:36:28.707Z,15.98
2018-08-22T16:38:57.933Z,13.50
2018-08-22T16:41:26.806Z,14.10
2018-08-22T16:43:55.681Z,14.60
2018-08-22T16:46:24.577Z,16.07
2018-08-22T16:48:54.747Z,16.10
2018-08-22T16:51:24.095Z,16.37
2018-08-22T16:54:08.590Z,16.42
2018-08-22T16:56:37.633Z,16.05
2018-08-22T16:59:10.731Z,14.07
2018-08-22T17:01:44.658Z,13.45
2018-08-22T17:04:13.557Z,15.75
2018-08-22T17:06:42.461Z,14.90
2018-08-22T17:09:11.874Z,14.73
2018-08-22T17:11:40.845Z,14.58
2018-08-22T17:14:09.724Z,13.40
2018-08-22T17:16:38.591Z,15.38
2018-08-22T17:19:07.556Z,15.78
2018-08-22T17:21:36.494Z,14.98
2018-08-22T17:24:05.423Z,14.40
2018-08-22T17:26:34.348Z,15.00
2018-08-22T17:29:03.333Z,13.90
2018-08-22T17:31:32.208Z,14.98
2018-08-22T17:34:02.377Z,14.38
2018-08-22T17:36:31.295Z,15.23
2018-08-22T17:39:01.379Z,13.93
2018-08-22T17:41:30.797Z,16.65
2018-08-22T17:44:15.049Z,15.95
2018-08-22T17:46:49.561Z,17.12
2018-08-22T17:49:18.545Z,16.65
2018-08-22T17:52:17.769Z,17.45
2018-08-22T17:54:51.545Z,16.65
2018-08-22T17:57:24.690Z,17.52
2018-08-22T17:59:53.984Z,16.35
2018-08-22T18:02:22.920Z,17.67
2018-08-22T18:05:03.396Z,15.88
2018-08-22T18:07:32.390Z,16.70
2018-08-22T18:10:03.308Z,16.27
2018-08-22T18:12:32.298Z,15.10
2018-08-22T18:15:02.688Z,16.07
2018-08-22T18:17:34.190Z,14.75
2018-08-22T18:20:05.290Z,15.53
2018-08-22T18:22:35.920Z,14.35
2018-08-22T18:25:05.276Z,13.45
2018-08-22T18:27:34.376Z,12.78
2018-08-22T18:30:03.407Z,12.90
2018-08-22T18:32:32.353Z,12.80
2018-08-22T18:35:11.992Z,14.38
2018-08-22T18:37:41.482Z,13.80
2018-08-22T18:40:19.497Z,14.60
2018-08-22T18:43:10.173Z,13.48
2018-08-22T18:46:07.716Z,12.90
2018-08-22T18:48:36.790Z,12.30
2018-08-22T18:51:05.805Z,13.03
2018-08-22T18:53:34.719Z,13.85
2018-08-22T18:56:16.964Z,14.35
2018-08-22T18:58:45.854Z,13.25
2018-08-22T19:01:14.784Z,13.72
2018-08-22T19:03:43.683Z,14.75
2018-08-22T19:06:12.683Z,14.47
2018-08-22T19:08:41.639Z,14.70
2018-08-22T19:11:10.729Z,16.15
2018-08-22T19:13:39.500Z,14.90
2018-08-22T19:16:11.851Z,14.63
2018-08-22T19:18:40.712Z,15.60
2018-08-22T19:21:10.803Z,16.30
2018-08-22T19:23:39.678Z,18.45
2018-08-22T19:26:08.910Z,17.23
2018-08-22T19:28:57.929Z,14.70
2018-08-22T19:31:26.870Z,15.85
2018-08-22T19:33:55.719Z,15.40
2018-08-22T19:36:24.611Z,15.05
2018-08-22T19:38:53.559Z,15.68
2018-08-22T19:41:40.708Z,16.35
2018-08-22T19:44:09.607Z,16.25
2018-08-22T19:46:38.566Z,17.80
2018-08-22T19:49:07.587Z,18.17
2018-08-22T19:51:36.430Z,19.02
2018-08-22T19:54:06.663Z,17.20
2018-08-22T19:56:35.593Z,18.50
2018-08-22T19:59:05.252Z,18.43
2018-08-22T20:01:37.473Z,17.27
2018-08-22T20:04:04.399Z,15.28
2018-08-22T20:06:33.337Z,15.27
2018-08-22T20:09:02.287Z,15.85
2018-08-22T20:11:34.113Z,17.27
2018-08-22T20:14:06.911Z,16.37
2018-08-22T20:16:35.927Z,16.97
2018-08-22T20:19:07.147Z,18.42
2018-08-22T20:21:36.950Z,16.60
2018-08-22T20:24:07.625Z,16.57
2018-08-22T20:26:43.007Z,16.77
2018-08-22T20:29:11.929Z,16.07
2018-08-22T20:31:40.839Z,16.73
2018-08-22T20:34:11.436Z,17.50
2018-08-22T20:36:40.831Z,16.42
2018-08-22T20:39:13.620Z,16.67
2018-08-22T20:41:43.009Z,17.40
2018-08-22T20:44:20.703Z,19.92
2018-08-22T20:46:49.714Z,18.63
2018-08-22T20:49:19.667Z,17.10
2018-08-22T20:51:48.833Z,18.07
2018-08-22T20:54:22.152Z,16.93
2018-08-22T20:57:02.927Z,17.43
2018-08-22T20:59:31.917Z,18.03
2018-08-22T21:02:06.709Z,19.03
2018-08-22T21:04:36.315Z,17.80
2018-08-22T21:07:05.594Z,18.00
2018-08-22T21:09:34.503Z,17.93
2018-08-22T21:12:04.334Z,17.93
2018-08-22T21:14:33.353Z,18.17
2018-08-22T21:17:02.152Z,18.30
2018-08-22T21:19:31.046Z,17.87
2018-08-22T21:21:59.913Z,16.90
2018-08-22T21:24:28.859Z,17.43
2018-08-22T21:26:57.695Z,18.03
2018-08-22T21:29:26.588Z,17.23
2018-08-22T21:31:55.468Z,16.07
2018-08-22T21:34:24.449Z,16.87
2018-08-22T21:36:53.429Z,18.70
2018-08-22T21:39:26.114Z,17.57
2018-08-22T21:41:55.121Z,18.07
2018-08-22T21:44:24.391Z,17.57
2018-08-22T21:47:09.447Z,17.57
2018-08-22T21:49:38.390Z,18.87
2018-08-22T21:52:07.277Z,18.70
2018-08-22T21:54:36.208Z,18.77
2018-08-22T21:57:05.189Z,19.00
2018-08-22T21:59:34.029Z,19.73
2018-08-22T22:02:10.099Z,21.80
2018-08-22T22:04:42.777Z,19.97
2018-08-22T22:07:12.263Z,19.70
2018-08-22T22:09:41.154Z,22.10
2018-08-22T22:12:27.579Z,21.10
2018-08-22T22:14:56.602Z,20.57
2018-08-22T22:17:25.490Z,20.17
2018-08-22T22:19:54.430Z,19.30
2018-08-22T22:22:23.345Z,18.67
2018-08-22T22:25:04.601Z,18.13
2018-08-22T22:27:33.524Z,20.83
2018-08-22T22:30:04.582Z,18.27
2018-08-22T22:32:34.026Z,22.05
2018-08-22T22:35:03.444Z,18.40
2018-08-22T22:37:32.373Z,19.07
2018-08-22T22:40:01.327Z,20.10
2018-08-22T22:42:33.238Z,18.90
2018-08-22T22:45:02.218Z,19.77
2018-08-22T22:47:37.342Z,20.80
2018-08-22T22:50:04.307Z,18.67
2018-08-22T22:52:40.878Z,19.47
2018-08-22T22:55:10.601Z,19.57
2018-08-22T22:57:43.338Z,19.37
2018-08-22T23:00:18.952Z,19.20
2018-08-22T23:03:07.689Z,18.97
2018-08-22T23:05:36.569Z,20.40
2018-08-22T23:08:05.489Z,19.37
2018-08-22T23:10:34.426Z,21.33
2018-08-22T23:13:05.923Z,21.07
2018-08-22T23:15:34.803Z,20.40
2018-08-22T23:18:03.778Z,21.70
2018-08-22T23:20:36.626Z,21.87
2018-08-22T23:23:37.564Z,19.67
2018-08-22T23:26:20.744Z,19.27
2018-08-22T23:28:52.386Z,17.80
2018-08-22T23:31:21.557Z,18.40
2018-08-22T23:33:50.617Z,17.53
2018-08-22T23:36:19.524Z,15.87
2018-08-22T23:38:48.410Z,17.73
2018-08-22T23:41:17.277Z,16.17
2018-08-22T23:43:50.950Z,17.63
2018-08-22T23:46:20.059Z,18.80
2018-08-22T23:48:56.267Z,20.43
2018-08-22T23:51:25.216Z,19.70
2018-08-22T23:53:58.167Z,17.53
2018-08-22T23:56:30.965Z,19.30
2018-08-22T23:59:00.276Z,19.03
